sensor_id;sensor_type;location;lat;lon;timestamp;temperature;humidity
45549;DHT22;31270;48.328;10.096;2024-03-22T00:01:01;7.40;99.90
45549;DHT22;31270;48.328;10.096;2024-03-22T00:03:45;7.40;99.90
45549;DHT22;31270;48.328;10.096;2024-03-22T00:06:29;7.30;99.90
45549;DHT22;31270;48.328;10.096;2024-03-22T00:09:14;7.30;99.90
45549;DHT22;31270;48.328;10.096;2024-03-22T00:11:58;7.20;99.90
45549;DHT22;31270;48.328;10.096;2024-03-22T00:14:42;7.20;99.90
45549;DHT22;31270;48.328;10.096;2024-03-22T00:17:26;7.10;99.90
45549;DHT22;31270;48.328;10.096;2024-03-22T00:20:11;7.10;99.90
45549;DHT22;31270;48.328;10.096;2024-03-22T00:22:55;7.10;99.90
45549;DHT22;31270;48.328;10.096;2024-03-22T00:25:39;7.10;99.90
45549;DHT22;31270;48.328;10.096;2024-03-22T00:28:23;7.10;99.90
45549;DHT22;31270;48.328;10.096;2024-03-22T00:31:08;7.30;99.90
45549;DHT22;31270;48.328;10.096;2024-03-22T00:33:52;7.10;99.90
45549;DHT22;31270;48.328;10.096;2024-03-22T00:36:36;7.00;99.90
45549;DHT22;31270;48.328;10.096;2024-03-22T00:39:20;7.00;99.90
45549;DHT22;31270;48.328;10.096;2024-03-22T00:42:04;6.90;99.90
45549;DHT22;31270;48.328;10.096;2024-03-22T00:44:49;6.90;99.90
45549;DHT22;31270;48.328;10.096;2024-03-22T00:47:33;6.90;99.90
45549;DHT22;31270;48.328;10.096;2024-03-22T00:50:17;7.00;99.90
45549;DHT22;31270;48.328;10.096;2024-03-22T00:53:01;7.10;99.90
45549;DHT22;31270;48.328;10.096;2024-03-22T00:55:47;7.20;99.90
45549;DHT22;31270;48.328;10.096;2024-03-22T00:58:35;7.20;99.90
45549;DHT22;31270;48.328;10.096;2024-03-22T01:01:19;7.10;99.90
45549;DHT22;31270;48.328;10.096;2024-03-22T01:04:03;7.20;99.90
45549;DHT22;31270;48.328;10.096;2024-03-22T01:06:47;7.10;99.90
45549;DHT22;31270;48.328;10.096;2024-03-22T01:09:31;7.10;99.90
45549;DHT22;31270;48.328;10.096;2024-03-22T01:12:17;7.00;99.90
45549;DHT22;31270;48.328;10.096;2024-03-22T01:15:01;7.10;99.90
45549;DHT22;31270;48.328;10.096;2024-03-22T01:17:45;7.00;99.90
45549;DHT22;31270;48.328;10.096;2024-03-22T01:20:29;7.00;99.90
45549;DHT22;31270;48.328;10.096;2024-03-22T01:23:13;6.90;99.90
45549;DHT22;31270;48.328;10.096;2024-03-22T01:25:57;6.80;99.90
45549;DHT22;31270;48.328;10.096;2024-03-22T01:28:41;6.80;99.90
45549;DHT22;31270;48.328;10.096;2024-03-22T01:31:25;6.70;99.90
45549;DHT22;31270;48.328;10.096;2024-03-22T01:34:10;6.70;99.90
45549;DHT22;31270;48.328;10.096;2024-03-22T01:36:54;6.60;99.90
45549;DHT22;31270;48.328;10.096;2024-03-22T01:39:38;6.50;99.90
45549;DHT22;31270;48.328;10.096;2024-03-22T01:42:22;6.50;99.90
45549;DHT22;31270;48.328;10.096;2024-03-22T01:45:06;6.50;99.90
45549;DHT22;31270;48.328;10.096;2024-03-22T01:47:52;6.50;99.90
45549;DHT22;31270;48.328;10.096;2024-03-22T01:50:40;6.50;99.90
45549;DHT22;31270;48.328;10.096;2024-03-22T01:53:25;6.40;99.90
45549;DHT22;31270;48.328;10.096;2024-03-22T01:56:10;6.40;99.90
45549;DHT22;31270;48.328;10.096;2024-03-22T01:58:56;6.30;99.90
45549;DHT22;31270;48.328;10.096;2024-03-22T02:01:41;6.30;99.90
45549;DHT22;31270;48.328;10.096;2024-03-22T02:04:25;6.30;99.90
45549;DHT22;31270;48.328;10.096;2024-03-22T02:07:10;6.30;99.90
45549;DHT22;31270;48.328;10.096;2024-03-22T02:09:54;6.30;99.90
45549;DHT22;31270;48.328;10.096;2024-03-22T02:12:38;6.30;99.90
45549;DHT22;31270;48.328;10.096;2024-03-22T02:15:24;6.20;99.90
45549;DHT22;31270;48.328;10.096;2024-03-22T02:18:08;6.20;99.90
45549;DHT22;31270;48.328;10.096;2024-03-22T02:20:53;6.30;99.90
45549;DHT22;31270;48.328;10.096;2024-03-22T02:23:39;6.20;99.90
45549;DHT22;31270;48.328;10.096;2024-03-22T02:26:24;6.20;99.90
45549;DHT22;31270;48.328;10.096;2024-03-22T02:29:08;6.10;99.90
45549;DHT22;31270;48.328;10.096;2024-03-22T02:31:52;6.10;99.90
45549;DHT22;31270;48.328;10.096;2024-03-22T02:34:37;6.10;99.90
45549;DHT22;31270;48.328;10.096;2024-03-22T02:37:21;6.10;99.90
45549;DHT22;31270;48.328;10.096;2024-03-22T02:40:06;6.10;99.90
45549;DHT22;31270;48.328;10.096;2024-03-22T02:42:50;6.10;99.90
45549;DHT22;31270;48.328;10.096;2024-03-22T02:45:34;6.20;99.90
45549;DHT22;31270;48.328;10.096;2024-03-22T02:48:19;6.10;99.90
45549;DHT22;31270;48.328;10.096;2024-03-22T02:51:03;6.00;99.90
45549;DHT22;31270;48.328;10.096;2024-03-22T02:53:48;6.00;99.90
45549;DHT22;31270;48.328;10.096;2024-03-22T02:56:32;6.00;99.90
45549;DHT22;31270;48.328;10.096;2024-03-22T02:59:16;6.00;99.90
45549;DHT22;31270;48.328;10.096;2024-03-22T03:02:00;6.00;99.90
45549;DHT22;31270;48.328;10.096;2024-03-22T03:04:44;6.00;99.90
45549;DHT22;31270;48.328;10.096;2024-03-22T03:07:28;6.00;99.90
45549;DHT22;31270;48.328;10.096;2024-03-22T03:10:12;6.00;99.90
45549;DHT22;31270;48.328;10.096;2024-03-22T03:12:56;6.10;99.90
45549;DHT22;31270;48.328;10.096;2024-03-22T03:15:41;6.00;99.90
45549;DHT22;31270;48.328;10.096;2024-03-22T03:18:25;5.90;99.90
45549;DHT22;31270;48.328;10.096;2024-03-22T03:21:09;6.00;99.90
45549;DHT22;31270;48.328;10.096;2024-03-22T03:23:53;6.00;99.90
45549;DHT22;31270;48.328;10.096;2024-03-22T03:26:37;5.90;99.90
45549;DHT22;31270;48.328;10.096;2024-03-22T03:29:21;5.90;99.90
45549;DHT22;31270;48.328;10.096;2024-03-22T03:32:05;5.90;99.90
45549;DHT22;31270;48.328;10.096;2024-03-22T03:34:49;5.80;99.90
45549;DHT22;31270;48.328;10.096;2024-03-22T03:37:33;5.80;99.90
45549;DHT22;31270;48.328;10.096;2024-03-22T03:40:17;5.80;99.90
45549;DHT22;31270;48.328;10.096;2024-03-22T03:43:02;5.80;99.90
45549;DHT22;31270;48.328;10.096;2024-03-22T03:45:45;5.70;99.90
45549;DHT22;31270;48.328;10.096;2024-03-22T03:48:30;5.70;99.90
45549;DHT22;31270;48.328;10.096;2024-03-22T03:51:14;5.70;99.90
45549;DHT22;31270;48.328;10.096;2024-03-22T03:53:58;5.60;99.90
45549;DHT22;31270;48.328;10.096;2024-03-22T03:56:42;5.60;99.90
45549;DHT22;31270;48.328;10.096;2024-03-22T03:59:26;5.60;99.90
45549;DHT22;31270;48.328;10.096;2024-03-22T04:02:10;5.50;99.90
45549;DHT22;31270;48.328;10.096;2024-03-22T04:04:54;5.50;99.90
45549;DHT22;31270;48.328;10.096;2024-03-22T04:07:38;5.50;99.90
45549;DHT22;31270;48.328;10.096;2024-03-22T04:10:23;5.50;99.90
45549;DHT22;31270;48.328;10.096;2024-03-22T04:13:08;5.50;99.90
45549;DHT22;31270;48.328;10.096;2024-03-22T04:15:53;5.50;99.90
45549;DHT22;31270;48.328;10.096;2024-03-22T04:18:38;5.50;99.90
45549;DHT22;31270;48.328;10.096;2024-03-22T04:21:23;5.40;99.90
45549;DHT22;31270;48.328;10.096;2024-03-22T04:24:07;5.40;99.90
45549;DHT22;31270;48.328;10.096;2024-03-22T04:26:51;5.50;99.90
45549;DHT22;31270;48.328;10.096;2024-03-22T04:29:35;5.40;99.90
45549;DHT22;31270;48.328;10.096;2024-03-22T04:32:19;5.40;99.90
45549;DHT22;31270;48.328;10.096;2024-03-22T04:35:03;5.30;99.90
45549;DHT22;31270;48.328;10.096;2024-03-22T04:37:47;5.30;99.90
45549;DHT22;31270;48.328;10.096;2024-03-22T04:40:31;5.20;99.90
45549;DHT22;31270;48.328;10.096;2024-03-22T04:43:16;5.30;99.90
45549;DHT22;31270;48.328;10.096;2024-03-22T04:46:01;5.30;99.90
45549;DHT22;31270;48.328;10.096;2024-03-22T04:48:44;5.30;99.90
45549;DHT22;31270;48.328;10.096;2024-03-22T04:51:28;5.30;99.90
45549;DHT22;31270;48.328;10.096;2024-03-22T04:54:12;5.30;99.90
45549;DHT22;31270;48.328;10.096;2024-03-22T04:56:57;5.30;99.90
45549;DHT22;31270;48.328;10.096;2024-03-22T04:59:41;5.30;99.90
45549;DHT22;31270;48.328;10.096;2024-03-22T05:02:25;5.30;99.90
45549;DHT22;31270;48.328;10.096;2024-03-22T05:05:09;5.30;99.90
45549;DHT22;31270;48.328;10.096;2024-03-22T05:07:53;5.40;99.90
45549;DHT22;31270;48.328;10.096;2024-03-22T05:10:37;5.40;99.90
45549;DHT22;31270;48.328;10.096;2024-03-22T05:13:22;5.40;99.90
45549;DHT22;31270;48.328;10.096;2024-03-22T05:16:06;5.40;99.90
45549;DHT22;31270;48.328;10.096;2024-03-22T05:18:51;5.40;99.90
45549;DHT22;31270;48.328;10.096;2024-03-22T05:21:38;5.40;99.90
45549;DHT22;31270;48.328;10.096;2024-03-22T05:24:22;5.40;99.90
45549;DHT22;31270;48.328;10.096;2024-03-22T05:27:06;5.40;99.90
45549;DHT22;31270;48.328;10.096;2024-03-22T05:29:50;5.40;99.90
45549;DHT22;31270;48.328;10.096;2024-03-22T05:32:34;5.40;99.90
45549;DHT22;31270;48.328;10.096;2024-03-22T05:35:18;5.40;99.90
45549;DHT22;31270;48.328;10.096;2024-03-22T05:38:02;5.50;99.90
45549;DHT22;31270;48.328;10.096;2024-03-22T05:40:46;5.60;99.90
45549;DHT22;31270;48.328;10.096;2024-03-22T05:43:32;5.60;99.90
45549;DHT22;31270;48.328;10.096;2024-03-22T05:46:16;5.60;99.90
45549;DHT22;31270;48.328;10.096;2024-03-22T05:49:00;5.80;99.90
45549;DHT22;31270;48.328;10.096;2024-03-22T05:51:44;5.70;99.90
45549;DHT22;31270;48.328;10.096;2024-03-22T05:54:28;5.80;99.90
45549;DHT22;31270;48.328;10.096;2024-03-22T05:57:12;5.90;99.90
45549;DHT22;31270;48.328;10.096;2024-03-22T05:59:57;5.80;99.90
45549;DHT22;31270;48.328;10.096;2024-03-22T06:02:41;5.90;99.90
45549;DHT22;31270;48.328;10.096;2024-03-22T06:05:28;5.90;99.90
45549;DHT22;31270;48.328;10.096;2024-03-22T06:08:13;5.90;99.90
45549;DHT22;31270;48.328;10.096;2024-03-22T06:11:03;6.00;99.90
45549;DHT22;31270;48.328;10.096;2024-03-22T06:13:47;6.10;99.90
45549;DHT22;31270;48.328;10.096;2024-03-22T06:16:31;6.20;99.90
45549;DHT22;31270;48.328;10.096;2024-03-22T06:19:15;6.30;99.90
45549;DHT22;31270;48.328;10.096;2024-03-22T06:21:59;6.40;99.90
45549;DHT22;31270;48.328;10.096;2024-03-22T06:24:44;6.50;99.90
45549;DHT22;31270;48.328;10.096;2024-03-22T06:27:28;6.60;99.90
45549;DHT22;31270;48.328;10.096;2024-03-22T06:30:13;6.80;99.90
45549;DHT22;31270;48.328;10.096;2024-03-22T06:32:57;7.00;99.90
45549;DHT22;31270;48.328;10.096;2024-03-22T06:35:41;7.10;99.90
45549;DHT22;31270;48.328;10.096;2024-03-22T06:38:26;7.20;99.90
45549;DHT22;31270;48.328;10.096;2024-03-22T06:41:10;7.30;99.90
45549;DHT22;31270;48.328;10.096;2024-03-22T06:43:54;7.40;99.90
45549;DHT22;31270;48.328;10.096;2024-03-22T06:46:39;7.60;99.90
45549;DHT22;31270;48.328;10.096;2024-03-22T06:49:24;7.70;99.90
45549;DHT22;31270;48.328;10.096;2024-03-22T06:52:09;7.80;99.90
45549;DHT22;31270;48.328;10.096;2024-03-22T06:54:53;8.00;99.90
45549;DHT22;31270;48.328;10.096;2024-03-22T06:57:37;8.10;99.90
45549;DHT22;31270;48.328;10.096;2024-03-22T07:00:21;8.30;99.90
45549;DHT22;31270;48.328;10.096;2024-03-22T07:03:06;8.50;99.90
45549;DHT22;31270;48.328;10.096;2024-03-22T07:05:50;8.70;99.90
45549;DHT22;31270;48.328;10.096;2024-03-22T07:08:35;8.90;99.90
45549;DHT22;31270;48.328;10.096;2024-03-22T07:11:19;9.10;99.90
45549;DHT22;31270;48.328;10.096;2024-03-22T07:14:03;9.30;99.90
45549;DHT22;31270;48.328;10.096;2024-03-22T07:16:47;9.40;99.90
45549;DHT22;31270;48.328;10.096;2024-03-22T07:19:31;9.50;99.90
45549;DHT22;31270;48.328;10.096;2024-03-22T07:22:17;9.50;99.90
45549;DHT22;31270;48.328;10.096;2024-03-22T07:25:02;9.50;99.90
45549;DHT22;31270;48.328;10.096;2024-03-22T07:27:46;9.60;99.90
45549;DHT22;31270;48.328;10.096;2024-03-22T07:30:32;9.60;99.90
45549;DHT22;31270;48.328;10.096;2024-03-22T07:33:16;9.70;99.90
45549;DHT22;31270;48.328;10.096;2024-03-22T07:36:02;9.90;99.90
45549;DHT22;31270;48.328;10.096;2024-03-22T07:38:47;10.00;99.90
45549;DHT22;31270;48.328;10.096;2024-03-22T07:41:33;10.10;99.90
45549;DHT22;31270;48.328;10.096;2024-03-22T07:44:17;10.10;99.90
45549;DHT22;31270;48.328;10.096;2024-03-22T07:47:04;10.20;99.90
45549;DHT22;31270;48.328;10.096;2024-03-22T07:49:48;10.30;99.90
45549;DHT22;31270;48.328;10.096;2024-03-22T07:52:32;10.40;99.90
45549;DHT22;31270;48.328;10.096;2024-03-22T07:55:17;10.50;99.90
45549;DHT22;31270;48.328;10.096;2024-03-22T07:58:01;10.70;99.90
45549;DHT22;31270;48.328;10.096;2024-03-22T08:00:45;10.90;99.90
45549;DHT22;31270;48.328;10.096;2024-03-22T08:03:29;11.00;99.90
45549;DHT22;31270;48.328;10.096;2024-03-22T08:06:13;11.10;99.90
45549;DHT22;31270;48.328;10.096;2024-03-22T08:08:57;11.20;99.90
45549;DHT22;31270;48.328;10.096;2024-03-22T08:11:41;11.30;99.90
45549;DHT22;31270;48.328;10.096;2024-03-22T08:14:25;11.30;99.90
45549;DHT22;31270;48.328;10.096;2024-03-22T08:17:09;11.50;99.90
45549;DHT22;31270;48.328;10.096;2024-03-22T08:19:54;11.60;99.90
45549;DHT22;31270;48.328;10.096;2024-03-22T08:22:39;11.70;99.90
45549;DHT22;31270;48.328;10.096;2024-03-22T08:25:23;11.80;99.90
45549;DHT22;31270;48.328;10.096;2024-03-22T08:28:08;12.00;99.90
45549;DHT22;31270;48.328;10.096;2024-03-22T08:30:52;12.20;99.90
45549;DHT22;31270;48.328;10.096;2024-03-22T08:33:36;12.40;99.90
45549;DHT22;31270;48.328;10.096;2024-03-22T08:36:20;12.40;99.90
45549;DHT22;31270;48.328;10.096;2024-03-22T08:39:04;12.40;99.90
45549;DHT22;31270;48.328;10.096;2024-03-22T08:41:51;12.60;99.90
45549;DHT22;31270;48.328;10.096;2024-03-22T08:44:36;12.90;99.90
45549;DHT22;31270;48.328;10.096;2024-03-22T08:47:20;13.10;99.90
45549;DHT22;31270;48.328;10.096;2024-03-22T08:50:05;13.30;99.90
45549;DHT22;31270;48.328;10.096;2024-03-22T08:52:49;13.50;99.90
45549;DHT22;31270;48.328;10.096;2024-03-22T08:55:34;13.70;99.90
45549;DHT22;31270;48.328;10.096;2024-03-22T08:58:18;13.70;99.90
45549;DHT22;31270;48.328;10.096;2024-03-22T09:01:02;13.80;99.90
45549;DHT22;31270;48.328;10.096;2024-03-22T09:03:46;13.60;99.90
45549;DHT22;31270;48.328;10.096;2024-03-22T09:06:30;13.60;99.90
45549;DHT22;31270;48.328;10.096;2024-03-22T09:09:15;13.50;99.90
45549;DHT22;31270;48.328;10.096;2024-03-22T09:11:59;13.60;99.90
45549;DHT22;31270;48.328;10.096;2024-03-22T09:14:43;13.60;99.90
45549;DHT22;31270;48.328;10.096;2024-03-22T09:17:27;13.80;99.90
45549;DHT22;31270;48.328;10.096;2024-03-22T09:20:11;14.10;99.90
45549;DHT22;31270;48.328;10.096;2024-03-22T09:22:55;14.30;99.90
45549;DHT22;31270;48.328;10.096;2024-03-22T09:25:41;14.30;99.90
45549;DHT22;31270;48.328;10.096;2024-03-22T09:28:25;14.40;99.90
45549;DHT22;31270;48.328;10.096;2024-03-22T09:31:10;14.30;99.90
45549;DHT22;31270;48.328;10.096;2024-03-22T09:33:54;14.30;99.90
45549;DHT22;31270;48.328;10.096;2024-03-22T09:36:39;14.30;99.90
45549;DHT22;31270;48.328;10.096;2024-03-22T09:39:23;14.50;99.90
45549;DHT22;31270;48.328;10.096;2024-03-22T09:42:08;14.60;99.90
45549;DHT22;31270;48.328;10.096;2024-03-22T09:44:54;14.70;99.90
45549;DHT22;31270;48.328;10.096;2024-03-22T09:47:39;14.80;99.90
45549;DHT22;31270;48.328;10.096;2024-03-22T09:50:25;15.00;99.90
45549;DHT22;31270;48.328;10.096;2024-03-22T09:53:10;15.20;99.90
45549;DHT22;31270;48.328;10.096;2024-03-22T09:55:55;15.40;99.90
45549;DHT22;31270;48.328;10.096;2024-03-22T09:58:43;15.60;99.90
45549;DHT22;31270;48.328;10.096;2024-03-22T10:01:27;15.70;99.90
45549;DHT22;31270;48.328;10.096;2024-03-22T10:04:12;15.90;99.90
45549;DHT22;31270;48.328;10.096;2024-03-22T10:06:56;16.20;99.90
45549;DHT22;31270;48.328;10.096;2024-03-22T10:09:41;16.50;99.90
45549;DHT22;31270;48.328;10.096;2024-03-22T10:12:26;16.60;99.90
45549;DHT22;31270;48.328;10.096;2024-03-22T10:15:11;16.50;99.90
45549;DHT22;31270;48.328;10.096;2024-03-22T10:17:57;16.50;99.90
45549;DHT22;31270;48.328;10.096;2024-03-22T10:20:41;16.70;99.90
45549;DHT22;31270;48.328;10.096;2024-03-22T10:23:25;16.80;99.90
45549;DHT22;31270;48.328;10.096;2024-03-22T10:26:10;16.90;99.90
45549;DHT22;31270;48.328;10.096;2024-03-22T10:28:55;16.80;99.90
45549;DHT22;31270;48.328;10.096;2024-03-22T10:31:39;16.90;99.90
45549;DHT22;31270;48.328;10.096;2024-03-22T10:34:24;16.80;99.90
45549;DHT22;31270;48.328;10.096;2024-03-22T10:37:10;17.00;99.90
45549;DHT22;31270;48.328;10.096;2024-03-22T10:39:57;17.10;99.90
45549;DHT22;31270;48.328;10.096;2024-03-22T10:42:42;17.00;99.90
45549;DHT22;31270;48.328;10.096;2024-03-22T10:45:27;17.00;99.90
45549;DHT22;31270;48.328;10.096;2024-03-22T10:48:12;17.10;99.90
45549;DHT22;31270;48.328;10.096;2024-03-22T10:51:00;17.20;99.90
45549;DHT22;31270;48.328;10.096;2024-03-22T10:53:45;17.50;99.90
45549;DHT22;31270;48.328;10.096;2024-03-22T10:56:30;17.70;99.90
45549;DHT22;31270;48.328;10.096;2024-03-22T10:59:18;17.90;99.90
45549;DHT22;31270;48.328;10.096;2024-03-22T11:02:04;18.20;99.90
45549;DHT22;31270;48.328;10.096;2024-03-22T11:04:57;18.30;99.90
45549;DHT22;31270;48.328;10.096;2024-03-22T11:07:43;18.40;99.90
45549;DHT22;31270;48.328;10.096;2024-03-22T11:10:33;18.60;99.90
45549;DHT22;31270;48.328;10.096;2024-03-22T11:13:18;18.90;99.90
45549;DHT22;31270;48.328;10.096;2024-03-22T11:16:02;19.00;99.90
45549;DHT22;31270;48.328;10.096;2024-03-22T11:18:46;18.90;99.90
45549;DHT22;31270;48.328;10.096;2024-03-22T11:21:34;19.00;99.90
45549;DHT22;31270;48.328;10.096;2024-03-22T11:24:18;19.20;99.90
45549;DHT22;31270;48.328;10.096;2024-03-22T11:27:02;19.40;99.90
45549;DHT22;31270;48.328;10.096;2024-03-22T11:29:46;19.40;99.90
45549;DHT22;31270;48.328;10.096;2024-03-22T11:32:30;19.40;99.90
45549;DHT22;31270;48.328;10.096;2024-03-22T11:35:15;19.60;99.90
45549;DHT22;31270;48.328;10.096;2024-03-22T11:37:59;19.80;99.90
45549;DHT22;31270;48.328;10.096;2024-03-22T11:40:44;20.00;99.90
45549;DHT22;31270;48.328;10.096;2024-03-22T11:43:30;20.00;99.90
45549;DHT22;31270;48.328;10.096;2024-03-22T11:46:17;19.90;99.90
45549;DHT22;31270;48.328;10.096;2024-03-22T11:49:02;19.90;99.90
45549;DHT22;31270;48.328;10.096;2024-03-22T11:51:46;19.80;99.90
45549;DHT22;31270;48.328;10.096;2024-03-22T11:54:30;19.80;99.90
45549;DHT22;31270;48.328;10.096;2024-03-22T11:57:15;19.80;99.90
45549;DHT22;31270;48.328;10.096;2024-03-22T12:00:00;19.80;99.90
45549;DHT22;31270;48.328;10.096;2024-03-22T12:02:45;19.70;99.90
45549;DHT22;31270;48.328;10.096;2024-03-22T12:05:33;19.70;99.90
45549;DHT22;31270;48.328;10.096;2024-03-22T12:08:20;19.70;99.90
45549;DHT22;31270;48.328;10.096;2024-03-22T12:11:04;19.70;99.90
45549;DHT22;31270;48.328;10.096;2024-03-22T12:13:49;19.70;99.90
45549;DHT22;31270;48.328;10.096;2024-03-22T12:16:33;19.80;99.90
45549;DHT22;31270;48.328;10.096;2024-03-22T12:19:17;19.70;99.90
45549;DHT22;31270;48.328;10.096;2024-03-22T12:22:01;19.70;99.90
45549;DHT22;31270;48.328;10.096;2024-03-22T12:24:46;19.80;99.90
45549;DHT22;31270;48.328;10.096;2024-03-22T12:27:30;19.80;99.90
45549;DHT22;31270;48.328;10.096;2024-03-22T12:30:14;19.80;99.90
45549;DHT22;31270;48.328;10.096;2024-03-22T12:32:58;19.80;99.90
45549;DHT22;31270;48.328;10.096;2024-03-22T12:35:42;19.80;99.90
45549;DHT22;31270;48.328;10.096;2024-03-22T12:38:27;19.90;99.90
45549;DHT22;31270;48.328;10.096;2024-03-22T12:41:11;20.10;99.90
45549;DHT22;31270;48.328;10.096;2024-03-22T12:43:55;20.20;99.90
45549;DHT22;31270;48.328;10.096;2024-03-22T12:46:40;19.90;99.90
45549;DHT22;31270;48.328;10.096;2024-03-22T12:49:27;20.00;99.90
45549;DHT22;31270;48.328;10.096;2024-03-22T12:52:11;20.30;99.90
45549;DHT22;31270;48.328;10.096;2024-03-22T12:54:55;20.30;99.90
45549;DHT22;31270;48.328;10.096;2024-03-22T12:57:39;20.20;99.90
45549;DHT22;31270;48.328;10.096;2024-03-22T13:00:24;20.10;99.90
45549;DHT22;31270;48.328;10.096;2024-03-22T13:03:09;20.10;99.90
45549;DHT22;31270;48.328;10.096;2024-03-22T13:05:55;20.10;99.90
45549;DHT22;31270;48.328;10.096;2024-03-22T13:08:40;20.20;99.90
45549;DHT22;31270;48.328;10.096;2024-03-22T13:11:24;20.30;99.90
45549;DHT22;31270;48.328;10.096;2024-03-22T13:14:08;20.50;99.90
45549;DHT22;31270;48.328;10.096;2024-03-22T13:16:53;20.60;99.90
45549;DHT22;31270;48.328;10.096;2024-03-22T13:19:37;20.90;99.90
45549;DHT22;31270;48.328;10.096;2024-03-22T13:22:21;20.80;99.90
45549;DHT22;31270;48.328;10.096;2024-03-22T13:25:06;20.60;99.90
45549;DHT22;31270;48.328;10.096;2024-03-22T13:27:51;20.70;99.90
45549;DHT22;31270;48.328;10.096;2024-03-22T13:30:35;21.10;99.90
45549;DHT22;31270;48.328;10.096;2024-03-22T13:33:21;20.90;99.90
45549;DHT22;31270;48.328;10.096;2024-03-22T13:36:05;21.00;99.90
45549;DHT22;31270;48.328;10.096;2024-03-22T13:38:49;20.90;99.90
45549;DHT22;31270;48.328;10.096;2024-03-22T13:41:33;21.00;99.90
45549;DHT22;31270;48.328;10.096;2024-03-22T13:44:17;21.00;99.90
45549;DHT22;31270;48.328;10.096;2024-03-22T13:47:01;20.90;99.90
45549;DHT22;31270;48.328;10.096;2024-03-22T13:49:45;20.90;99.90
45549;DHT22;31270;48.328;10.096;2024-03-22T13:52:29;21.00;99.90
45549;DHT22;31270;48.328;10.096;2024-03-22T13:55:13;21.00;99.90
45549;DHT22;31270;48.328;10.096;2024-03-22T13:57:58;20.90;99.90
45549;DHT22;31270;48.328;10.096;2024-03-22T14:00:42;21.00;99.90
45549;DHT22;31270;48.328;10.096;2024-03-22T14:03:26;21.00;99.90
45549;DHT22;31270;48.328;10.096;2024-03-22T14:06:10;21.00;99.90
45549;DHT22;31270;48.328;10.096;2024-03-22T14:08:54;21.00;99.90
45549;DHT22;31270;48.328;10.096;2024-03-22T14:11:44;21.00;99.90
45549;DHT22;31270;48.328;10.096;2024-03-22T14:14:29;20.70;99.90
45549;DHT22;31270;48.328;10.096;2024-03-22T14:17:13;20.60;99.90
45549;DHT22;31270;48.328;10.096;2024-03-22T14:19:57;20.40;99.90
45549;DHT22;31270;48.328;10.096;2024-03-22T14:22:41;20.40;99.90
45549;DHT22;31270;48.328;10.096;2024-03-22T14:25:25;20.30;99.90
45549;DHT22;31270;48.328;10.096;2024-03-22T14:28:11;20.30;99.90
45549;DHT22;31270;48.328;10.096;2024-03-22T14:30:56;20.30;99.90
45549;DHT22;31270;48.328;10.096;2024-03-22T14:33:40;20.40;99.90
45549;DHT22;31270;48.328;10.096;2024-03-22T14:36:25;20.50;99.90
45549;DHT22;31270;48.328;10.096;2024-03-22T14:39:09;20.70;99.90
45549;DHT22;31270;48.328;10.096;2024-03-22T14:41:53;20.90;99.90
45549;DHT22;31270;48.328;10.096;2024-03-22T14:44:39;20.80;99.90
45549;DHT22;31270;48.328;10.096;2024-03-22T14:47:23;20.70;99.90
45549;DHT22;31270;48.328;10.096;2024-03-22T14:50:07;20.60;99.90
45549;DHT22;31270;48.328;10.096;2024-03-22T14:52:51;20.30;99.90
45549;DHT22;31270;48.328;10.096;2024-03-22T14:55:36;20.40;99.90
45549;DHT22;31270;48.328;10.096;2024-03-22T14:58:21;20.30;99.90
45549;DHT22;31270;48.328;10.096;2024-03-22T15:01:05;20.20;99.90
45549;DHT22;31270;48.328;10.096;2024-03-22T15:03:50;20.00;99.90
45549;DHT22;31270;48.328;10.096;2024-03-22T15:06:35;19.90;99.90
45549;DHT22;31270;48.328;10.096;2024-03-22T15:09:20;19.70;99.90
45549;DHT22;31270;48.328;10.096;2024-03-22T15:12:05;19.60;99.90
45549;DHT22;31270;48.328;10.096;2024-03-22T15:14:53;19.30;99.90
45549;DHT22;31270;48.328;10.096;2024-03-22T15:17:37;19.30;99.90
45549;DHT22;31270;48.328;10.096;2024-03-22T15:20:21;19.10;99.90
45549;DHT22;31270;48.328;10.096;2024-03-22T15:23:05;19.00;99.90
45549;DHT22;31270;48.328;10.096;2024-03-22T15:25:50;19.00;99.90
45549;DHT22;31270;48.328;10.096;2024-03-22T15:28:34;18.90;99.90
45549;DHT22;31270;48.328;10.096;2024-03-22T15:31:18;18.90;99.90
45549;DHT22;31270;48.328;10.096;2024-03-22T15:34:02;19.00;99.90
45549;DHT22;31270;48.328;10.096;2024-03-22T15:36:46;18.90;99.90
45549;DHT22;31270;48.328;10.096;2024-03-22T15:39:30;18.90;99.90
45549;DHT22;31270;48.328;10.096;2024-03-22T15:42:14;18.80;99.90
45549;DHT22;31270;48.328;10.096;2024-03-22T15:44:58;18.80;99.90
45549;DHT22;31270;48.328;10.096;2024-03-22T15:47:47;18.70;99.90
45549;DHT22;31270;48.328;10.096;2024-03-22T15:50:37;18.60;99.90
45549;DHT22;31270;48.328;10.096;2024-03-22T15:53:22;18.60;99.90
45549;DHT22;31270;48.328;10.096;2024-03-22T15:56:06;18.40;99.90
45549;DHT22;31270;48.328;10.096;2024-03-22T15:58:52;18.40;99.90
45549;DHT22;31270;48.328;10.096;2024-03-22T16:01:36;18.40;99.90
45549;DHT22;31270;48.328;10.096;2024-03-22T16:04:20;18.40;99.90
45549;DHT22;31270;48.328;10.096;2024-03-22T16:07:05;18.30;99.90
45549;DHT22;31270;48.328;10.096;2024-03-22T16:09:50;18.20;99.90
45549;DHT22;31270;48.328;10.096;2024-03-22T16:12:35;18.10;99.90
45549;DHT22;31270;48.328;10.096;2024-03-22T16:15:19;18.00;99.90
45549;DHT22;31270;48.328;10.096;2024-03-22T16:18:03;17.90;99.90
45549;DHT22;31270;48.328;10.096;2024-03-22T16:20:47;17.90;99.90
45549;DHT22;31270;48.328;10.096;2024-03-22T16:23:31;17.80;99.90
45549;DHT22;31270;48.328;10.096;2024-03-22T16:26:15;17.70;99.90
45549;DHT22;31270;48.328;10.096;2024-03-22T16:28:59;17.70;99.90
45549;DHT22;31270;48.328;10.096;2024-03-22T16:31:44;17.70;99.90
45549;DHT22;31270;48.328;10.096;2024-03-22T16:34:28;17.70;99.90
45549;DHT22;31270;48.328;10.096;2024-03-22T16:37:12;17.70;99.90
45549;DHT22;31270;48.328;10.096;2024-03-22T16:39:56;17.70;99.90
45549;DHT22;31270;48.328;10.096;2024-03-22T16:42:44;17.60;99.90
45549;DHT22;31270;48.328;10.096;2024-03-22T16:45:29;17.50;99.90
45549;DHT22;31270;48.328;10.096;2024-03-22T16:48:15;17.50;99.90
45549;DHT22;31270;48.328;10.096;2024-03-22T16:50:59;17.40;99.90
45549;DHT22;31270;48.328;10.096;2024-03-22T16:53:43;17.40;99.90
45549;DHT22;31270;48.328;10.096;2024-03-22T16:56:28;17.30;99.90
45549;DHT22;31270;48.328;10.096;2024-03-22T16:59:12;17.20;99.90
45549;DHT22;31270;48.328;10.096;2024-03-22T17:01:56;17.20;99.90
45549;DHT22;31270;48.328;10.096;2024-03-22T17:04:40;17.10;99.90
45549;DHT22;31270;48.328;10.096;2024-03-22T17:07:24;17.10;99.90
45549;DHT22;31270;48.328;10.096;2024-03-22T17:10:08;17.00;99.90